Time,TemperatureF,DewpointF,PressureIn,WindDirection,WindDirectionDegrees,WindSpeedMPH,WindSpeedGustMPH,Humidity,HourlyPrecipIn,Conditions,Clouds,dailyrainin,SoftwareType,DateUTC
2013-08-04 00:12:00,64.0,47.0,30.11,North,0,0.0,0.0,55,-99.99,,,-99.99,,2013-08-04 05:12:00,
2013-08-04 02:33:00,60.0,48.0,30.14,NE,45,0.0,0.0,64,-99.99,,,-99.99,,2013-08-04 07:33:00,
2013-08-04 02:52:00,59.0,47.0,30.13,NE,45,0.0,0.0,65,-99.99,,,-99.99,,2013-08-04 07:52:00,
2013-08-04 03:02:00,59.0,48.0,30.14,NE,45,0.0,0.0,66,-99.99,,,-99.99,,2013-08-04 08:02:00,
2013-08-04 07:22:00,55.0,47.0,30.14,NE,45,0.0,0.0,74,-99.99,,,-99.99,,2013-08-04 12:22:00,
2013-08-04 07:43:00,57.0,49.0,30.17,North,0,0.0,0.0,75,-99.99,,,-99.99,,2013-08-04 12:43:00,
2013-08-04 07:53:00,57.0,49.0,30.17,NE,45,0.0,0.0,74,-99.99,,,-99.99,,2013-08-04 12:53:00,
2013-08-04 08:02:00,57.0,49.0,30.17,NE,45,0.0,1.0,74,-99.99,,,-99.99,,2013-08-04 13:02:00,
2013-08-04 08:12:00,57.0,49.0,30.17,NE,45,0.0,1.0,74,-99.99,,,-99.99,,2013-08-04 13:12:00,
2013-08-04 08:22:00,58.0,49.0,30.17,North,0,0.0,0.0,73,-99.99,,,-99.99,,2013-08-04 13:22:00,
2013-08-04 08:32:00,59.0,50.0,30.17,South,180,0.0,1.0,72,-99.99,,,-99.99,,2013-08-04 13:32:00,
2013-08-04 08:43:00,61.0,52.0,30.19,NW,315,0.0,0.0,72,-99.99,,,-99.99,,2013-08-04 13:43:00,
2013-08-04 08:52:00,64.0,54.0,30.18,NE,45,0.0,0.0,71,-99.99,,,-99.99,,2013-08-04 13:52:00,
2013-08-04 09:32:00,69.0,54.0,30.18,East,90,0.0,1.0,59,-99.99,,,-99.99,,2013-08-04 14:32:00,
2013-08-04 09:43:00,69.0,54.0,30.18,East,90,0.0,1.0,59,-99.99,,,-99.99,,2013-08-04 14:43:00,
2013-08-04 16:43:00,80.0,47.0,30.10,SW,225,2.0,2.0,32,-99.99,,,-99.99,,2013-08-04 21:43:00,
2013-08-04 16:53:00,79.0,47.0,30.10,North,0,0.0,0.0,32,-99.99,,,-99.99,,2013-08-04 21:53:00,
2013-08-04 17:02:00,79.0,47.0,30.09,NE,45,0.0,4.0,32,-99.99,,,-99.99,,2013-08-04 22:02:00,
2013-08-04 17:12:00,79.0,47.0,30.09,NE,45,0.0,4.0,32,-99.99,,,-99.99,,2013-08-04 22:12:00,
2013-08-04 17:22:00,79.0,47.0,30.09,NE,45,0.0,4.0,32,-99.99,,,-99.99,,2013-08-04 22:22:00,
2013-08-04 17:32:00,79.0,47.0,30.09,NW,311,1.0,3.0,33,-99.99,,,-99.99,,2013-08-04 22:32:00,
2013-08-04 17:43:00,78.0,46.0,30.09,North,0,0.0,1.0,32,-99.99,,,-99.99,,2013-08-04 22:43:00,
2013-08-04 17:53:00,78.0,46.0,30.09,North,0,0.0,1.0,32,-99.99,,,-99.99,,2013-08-04 22:53:00,
2013-08-04 18:02:00,77.0,46.0,30.07,North,0,0.0,0.0,34,-99.99,,,-99.99,,2013-08-04 23:02:00,
2013-08-04 18:12:00,77.0,46.0,30.07,North,0,0.0,0.0,34,-99.99,,,-99.99,,2013-08-04 23:12:00,
2013-08-04 18:22:00,76.0,46.0,30.07,SW,225,0.0,1.0,35,-99.99,,,-99.99,,2013-08-04 23:22:00,
2013-08-04 18:32:00,76.0,46.0,30.06,East,90,0.0,0.0,35,-99.99,,,-99.99,,2013-08-04 23:32:00,
2013-08-04 18:43:00,76.0,48.0,30.06,NW,315,0.0,0.0,37,-99.99,,,-99.99,,2013-08-04 23:43:00,
2013-08-04 18:53:00,75.0,47.0,30.06,West,270,0.0,0.0,37,-99.99,,,-99.99,,2013-08-04 23:53:00,
2013-08-04 19:02:00,75.0,47.0,30.06,West,270,0.0,0.0,37,-99.99,,,-99.99,,2013-08-05 00:02:00,
2013-08-04 19:12:00,75.0,47.0,30.06,West,270,0.0,0.0,37,-99.99,,,-99.99,,2013-08-05 00:12:00,
2013-08-04 19:22:00,74.0,47.0,30.06,NE,45,0.0,0.0,39,-99.99,,,-99.99,,2013-08-05 00:22:00,
2013-08-04 19:32:00,74.0,47.0,30.06,NE,45,0.0,0.0,39,-99.99,,,-99.99,,2013-08-05 00:32:00,
2013-08-04 19:42:00,74.0,47.0,30.06,NE,45,0.0,0.0,39,-99.99,,,-99.99,,2013-08-05 00:42:00,
2013-08-04 19:53:00,74.0,47.0,30.06,NE,45,0.0,0.0,39,-99.99,,,-99.99,,2013-08-05 00:53:00,
2013-08-04 20:02:00,72.0,48.0,30.06,West,270,0.0,0.0,43,-99.99,,,-99.99,,2013-08-05 01:02:00,
2013-08-04 20:12:00,72.0,48.0,30.06,West,270,0.0,0.0,43,-99.99,,,-99.99,,2013-08-05 01:12:00,
2013-08-04 20:22:00,71.0,49.0,30.05,West,270,0.0,0.0,46,-99.99,,,-99.99,,2013-08-05 01:22:00,
2013-08-04 20:33:00,70.0,49.0,30.05,West,270,0.0,0.0,47,-99.99,,,-99.99,,2013-08-05 01:33:00,
2013-08-04 20:42:00,70.0,50.0,30.05,West,270,0.0,0.0,49,-99.99,,,-99.99,,2013-08-05 01:42:00,
2013-08-04 20:52:00,70.0,50.0,30.05,West,270,0.0,0.0,49,-99.99,,,-99.99,,2013-08-05 01:52:00,
2013-08-04 21:02:00,69.0,50.0,30.05,West,270,0.0,0.0,51,-99.99,,,-99.99,,2013-08-05 02:02:00,
2013-08-04 21:12:00,69.0,50.0,30.05,West,270,0.0,0.0,51,-99.99,,,-99.99,,2013-08-05 02:12:00,
2013-08-04 21:22:00,69.0,50.0,30.05,West,270,0.0,0.0,51,-99.99,,,-99.99,,2013-08-05 02:22:00,